sensor_id;sensor_type;location;lat;lon;timestamp;P1;durP1;ratioP1;P2;durP2;ratioP2
84345;SDS011;74709;53.128;18.020;2024-01-07T00:00:45;4.20;;;2.20;;
84345;SDS011;74709;53.128;18.020;2024-01-07T00:02:07;3.60;;;2.00;;
84345;SDS011;74709;53.128;18.020;2024-01-07T00:03:10;4.20;;;2.10;;
84345;SDS011;74709;53.128;18.020;2024-01-07T00:04:14;2.40;;;1.70;;
84345;SDS011;74709;53.128;18.020;2024-01-07T00:05:17;1.90;;;1.40;;
84345;SDS011;74709;53.128;18.020;2024-01-07T00:06:20;5.30;;;2.30;;
84345;SDS011;74709;53.128;18.020;2024-01-07T00:07:23;3.40;;;2.10;;
84345;SDS011;74709;53.128;18.020;2024-01-07T00:08:26;1.90;;;1.50;;
84345;SDS011;74709;53.128;18.020;2024-01-07T00:09:29;4.70;;;2.20;;
84345;SDS011;74709;53.128;18.020;2024-01-07T00:10:32;4.00;;;2.20;;
84345;SDS011;74709;53.128;18.020;2024-01-07T00:11:34;1.70;;;1.40;;
84345;SDS011;74709;53.128;18.020;2024-01-07T00:12:37;8.40;;;2.40;;
84345;SDS011;74709;53.128;18.020;2024-01-07T00:13:40;4.00;;;2.20;;
84345;SDS011;74709;53.128;18.020;2024-01-07T00:14:42;3.40;;;1.90;;
84345;SDS011;74709;53.128;18.020;2024-01-07T00:15:45;4.30;;;1.90;;
84345;SDS011;74709;53.128;18.020;2024-01-07T00:16:48;5.50;;;2.20;;
84345;SDS011;74709;53.128;18.020;2024-01-07T00:17:50;4.90;;;2.20;;
84345;SDS011;74709;53.128;18.020;2024-01-07T00:18:53;4.30;;;2.20;;
84345;SDS011;74709;53.128;18.020;2024-01-07T00:19:56;3.60;;;2.10;;
84345;SDS011;74709;53.128;18.020;2024-01-07T00:20:59;6.00;;;2.30;;
84345;SDS011;74709;53.128;18.020;2024-01-07T00:22:02;5.40;;;2.30;;
84345;SDS011;74709;53.128;18.020;2024-01-07T00:23:04;5.20;;;2.40;;
84345;SDS011;74709;53.128;18.020;2024-01-07T00:24:07;6.20;;;2.40;;
84345;SDS011;74709;53.128;18.020;2024-01-07T00:25:10;2.90;;;1.60;;
84345;SDS011;74709;53.128;18.020;2024-01-07T00:26:12;4.30;;;2.50;;
84345;SDS011;74709;53.128;18.020;2024-01-07T00:27:15;4.10;;;2.30;;
84345;SDS011;74709;53.128;18.020;2024-01-07T00:28:18;5.60;;;2.30;;
84345;SDS011;74709;53.128;18.020;2024-01-07T00:29:21;5.60;;;2.20;;
84345;SDS011;74709;53.128;18.020;2024-01-07T00:30:24;5.90;;;2.30;;
84345;SDS011;74709;53.128;18.020;2024-01-07T00:31:27;3.20;;;1.80;;
84345;SDS011;74709;53.128;18.020;2024-01-07T00:32:29;5.40;;;2.70;;
84345;SDS011;74709;53.128;18.020;2024-01-07T00:33:32;4.20;;;1.90;;
84345;SDS011;74709;53.128;18.020;2024-01-07T00:34:36;4.90;;;2.20;;
84345;SDS011;74709;53.128;18.020;2024-01-07T00:35:39;4.00;;;2.20;;
84345;SDS011;74709;53.128;18.020;2024-01-07T00:36:42;4.50;;;2.70;;
84345;SDS011;74709;53.128;18.020;2024-01-07T00:37:45;4.00;;;2.00;;
84345;SDS011;74709;53.128;18.020;2024-01-07T00:38:48;5.50;;;2.30;;
84345;SDS011;74709;53.128;18.020;2024-01-07T00:39:50;6.50;;;2.70;;
84345;SDS011;74709;53.128;18.020;2024-01-07T00:40:53;3.00;;;2.20;;
84345;SDS011;74709;53.128;18.020;2024-01-07T00:41:56;2.80;;;2.00;;
84345;SDS011;74709;53.128;18.020;2024-01-07T00:42:59;5.00;;;2.90;;
84345;SDS011;74709;53.128;18.020;2024-01-07T00:44:01;5.90;;;2.20;;
84345;SDS011;74709;53.128;18.020;2024-01-07T00:45:05;4.20;;;2.00;;
84345;SDS011;74709;53.128;18.020;2024-01-07T00:46:08;6.00;;;2.90;;
84345;SDS011;74709;53.128;18.020;2024-01-07T00:47:11;6.10;;;2.30;;
84345;SDS011;74709;53.128;18.020;2024-01-07T00:48:13;5.10;;;2.70;;
84345;SDS011;74709;53.128;18.020;2024-01-07T00:49:16;5.20;;;2.40;;
84345;SDS011;74709;53.128;18.020;2024-01-07T00:50:19;4.50;;;2.30;;
84345;SDS011;74709;53.128;18.020;2024-01-07T00:51:22;5.80;;;2.70;;
84345;SDS011;74709;53.128;18.020;2024-01-07T00:52:25;6.60;;;2.30;;
84345;SDS011;74709;53.128;18.020;2024-01-07T00:53:27;2.60;;;1.60;;
84345;SDS011;74709;53.128;18.020;2024-01-07T00:54:30;5.70;;;2.80;;
84345;SDS011;74709;53.128;18.020;2024-01-07T00:55:33;4.10;;;2.30;;
84345;SDS011;74709;53.128;18.020;2024-01-07T00:56:37;4.50;;;2.40;;
84345;SDS011;74709;53.128;18.020;2024-01-07T00:57:41;4.40;;;2.60;;
84345;SDS011;74709;53.128;18.020;2024-01-07T00:58:44;5.80;;;2.30;;
84345;SDS011;74709;53.128;18.020;2024-01-07T00:59:46;7.90;;;2.90;;
84345;SDS011;74709;53.128;18.020;2024-01-07T01:00:49;4.60;;;2.40;;
84345;SDS011;74709;53.128;18.020;2024-01-07T01:01:53;5.00;;;2.30;;
84345;SDS011;74709;53.128;18.020;2024-01-07T01:02:56;5.60;;;3.00;;
84345;SDS011;74709;53.128;18.020;2024-01-07T01:03:58;4.70;;;2.00;;
84345;SDS011;74709;53.128;18.020;2024-01-07T01:05:01;3.90;;;2.10;;
84345;SDS011;74709;53.128;18.020;2024-01-07T01:06:04;6.40;;;2.30;;
84345;SDS011;74709;53.128;18.020;2024-01-07T01:07:07;4.70;;;2.30;;
84345;SDS011;74709;53.128;18.020;2024-01-07T01:08:10;4.70;;;2.40;;
84345;SDS011;74709;53.128;18.020;2024-01-07T01:09:13;6.10;;;2.60;;
84345;SDS011;74709;53.128;18.020;2024-01-07T01:10:16;5.00;;;2.30;;
84345;SDS011;74709;53.128;18.020;2024-01-07T01:11:19;3.40;;;1.60;;
84345;SDS011;74709;53.128;18.020;2024-01-07T01:12:22;3.80;;;2.30;;
84345;SDS011;74709;53.128;18.020;2024-01-07T01:13:24;4.10;;;2.60;;
84345;SDS011;74709;53.128;18.020;2024-01-07T01:14:27;3.80;;;2.50;;
84345;SDS011;74709;53.128;18.020;2024-01-07T01:15:30;4.90;;;2.30;;
84345;SDS011;74709;53.128;18.020;2024-01-07T01:16:32;6.00;;;2.20;;
84345;SDS011;74709;53.128;18.020;2024-01-07T01:17:35;3.80;;;2.30;;
84345;SDS011;74709;53.128;18.020;2024-01-07T01:18:38;5.70;;;2.70;;
84345;SDS011;74709;53.128;18.020;2024-01-07T01:19:41;6.60;;;2.80;;
84345;SDS011;74709;53.128;18.020;2024-01-07T01:20:43;5.50;;;2.50;;
84345;SDS011;74709;53.128;18.020;2024-01-07T01:21:46;5.40;;;2.80;;
84345;SDS011;74709;53.128;18.020;2024-01-07T01:22:49;4.60;;;2.90;;
84345;SDS011;74709;53.128;18.020;2024-01-07T01:23:51;5.60;;;2.20;;
84345;SDS011;74709;53.128;18.020;2024-01-07T01:24:54;4.10;;;2.10;;
84345;SDS011;74709;53.128;18.020;2024-01-07T01:27:01;3.10;;;1.60;;
84345;SDS011;74709;53.128;18.020;2024-01-07T01:28:04;4.90;;;2.10;;
84345;SDS011;74709;53.128;18.020;2024-01-07T01:29:07;6.50;;;2.60;;
84345;SDS011;74709;53.128;18.020;2024-01-07T01:30:09;6.50;;;2.90;;
84345;SDS011;74709;53.128;18.020;2024-01-07T01:31:13;5.30;;;2.30;;
84345;SDS011;74709;53.128;18.020;2024-01-07T01:32:17;3.30;;;2.30;;
84345;SDS011;74709;53.128;18.020;2024-01-07T01:33:19;3.50;;;2.40;;
84345;SDS011;74709;53.128;18.020;2024-01-07T01:34:22;5.10;;;2.70;;
84345;SDS011;74709;53.128;18.020;2024-01-07T01:35:25;4.60;;;2.80;;
84345;SDS011;74709;53.128;18.020;2024-01-07T01:36:27;5.30;;;2.60;;
84345;SDS011;74709;53.128;18.020;2024-01-07T01:37:30;5.00;;;2.50;;
84345;SDS011;74709;53.128;18.020;2024-01-07T01:38:35;4.50;;;2.60;;
84345;SDS011;74709;53.128;18.020;2024-01-07T01:39:41;3.90;;;2.30;;
84345;SDS011;74709;53.128;18.020;2024-01-07T01:40:43;4.60;;;2.50;;
84345;SDS011;74709;53.128;18.020;2024-01-07T01:41:46;5.60;;;2.30;;
84345;SDS011;74709;53.128;18.020;2024-01-07T01:42:49;4.10;;;2.30;;
84345;SDS011;74709;53.128;18.020;2024-01-07T01:43:55;5.40;;;2.90;;
84345;SDS011;74709;53.128;18.020;2024-01-07T01:44:59;3.30;;;2.20;;
84345;SDS011;74709;53.128;18.020;2024-01-07T01:46:04;5.00;;;2.50;;
84345;SDS011;74709;53.128;18.020;2024-01-07T01:47:06;5.20;;;2.50;;
84345;SDS011;74709;53.128;18.020;2024-01-07T01:48:09;5.20;;;2.40;;
84345;SDS011;74709;53.128;18.020;2024-01-07T01:49:12;5.10;;;2.50;;
84345;SDS011;74709;53.128;18.020;2024-01-07T01:50:15;7.70;;;3.00;;
84345;SDS011;74709;53.128;18.020;2024-01-07T01:51:20;5.50;;;2.90;;
84345;SDS011;74709;53.128;18.020;2024-01-07T01:52:23;4.10;;;2.40;;
84345;SDS011;74709;53.128;18.020;2024-01-07T01:53:26;5.30;;;2.80;;
84345;SDS011;74709;53.128;18.020;2024-01-07T01:54:29;3.80;;;2.40;;
84345;SDS011;74709;53.128;18.020;2024-01-07T01:55:32;5.50;;;2.80;;
84345;SDS011;74709;53.128;18.020;2024-01-07T01:56:34;4.80;;;2.50;;
84345;SDS011;74709;53.128;18.020;2024-01-07T01:57:37;8.60;;;3.30;;
84345;SDS011;74709;53.128;18.020;2024-01-07T01:58:42;4.60;;;2.70;;
84345;SDS011;74709;53.128;18.020;2024-01-07T01:59:45;4.50;;;2.60;;
84345;SDS011;74709;53.128;18.020;2024-01-07T02:00:47;6.10;;;2.90;;
84345;SDS011;74709;53.128;18.020;2024-01-07T02:01:50;3.80;;;2.10;;
84345;SDS011;74709;53.128;18.020;2024-01-07T02:02:53;4.80;;;2.80;;
84345;SDS011;74709;53.128;18.020;2024-01-07T02:03:56;5.50;;;2.70;;
84345;SDS011;74709;53.128;18.020;2024-01-07T02:04:58;4.80;;;2.50;;
84345;SDS011;74709;53.128;18.020;2024-01-07T02:06:01;5.90;;;2.60;;
84345;SDS011;74709;53.128;18.020;2024-01-07T02:07:04;6.10;;;2.50;;
84345;SDS011;74709;53.128;18.020;2024-01-07T02:08:07;5.60;;;2.70;;
84345;SDS011;74709;53.128;18.020;2024-01-07T02:09:10;7.00;;;3.20;;
84345;SDS011;74709;53.128;18.020;2024-01-07T02:10:13;4.40;;;2.70;;
84345;SDS011;74709;53.128;18.020;2024-01-07T02:11:19;4.70;;;3.00;;
84345;SDS011;74709;53.128;18.020;2024-01-07T02:12:22;5.50;;;2.80;;
84345;SDS011;74709;53.128;18.020;2024-01-07T02:13:25;3.80;;;2.20;;
84345;SDS011;74709;53.128;18.020;2024-01-07T02:14:28;3.80;;;2.10;;
84345;SDS011;74709;53.128;18.020;2024-01-07T02:15:31;4.60;;;2.70;;
84345;SDS011;74709;53.128;18.020;2024-01-07T02:16:34;5.30;;;2.80;;
84345;SDS011;74709;53.128;18.020;2024-01-07T02:17:36;4.80;;;2.50;;
84345;SDS011;74709;53.128;18.020;2024-01-07T02:18:40;4.00;;;2.60;;
84345;SDS011;74709;53.128;18.020;2024-01-07T02:20:46;7.30;;;2.60;;
84345;SDS011;74709;53.128;18.020;2024-01-07T02:21:51;4.40;;;2.00;;
84345;SDS011;74709;53.128;18.020;2024-01-07T02:22:55;5.70;;;3.10;;
84345;SDS011;74709;53.128;18.020;2024-01-07T02:24:03;5.00;;;2.60;;
84345;SDS011;74709;53.128;18.020;2024-01-07T02:25:07;4.60;;;2.50;;
84345;SDS011;74709;53.128;18.020;2024-01-07T02:26:10;7.00;;;2.80;;
84345;SDS011;74709;53.128;18.020;2024-01-07T02:27:13;6.90;;;3.00;;
84345;SDS011;74709;53.128;18.020;2024-01-07T02:28:16;5.70;;;2.70;;
84345;SDS011;74709;53.128;18.020;2024-01-07T02:29:19;4.80;;;2.80;;
84345;SDS011;74709;53.128;18.020;2024-01-07T02:30:22;5.50;;;2.60;;
84345;SDS011;74709;53.128;18.020;2024-01-07T02:31:25;5.20;;;2.40;;
84345;SDS011;74709;53.128;18.020;2024-01-07T02:32:28;5.50;;;2.30;;
84345;SDS011;74709;53.128;18.020;2024-01-07T02:33:31;6.40;;;3.20;;
84345;SDS011;74709;53.128;18.020;2024-01-07T02:34:33;7.30;;;3.70;;
84345;SDS011;74709;53.128;18.020;2024-01-07T02:35:36;6.00;;;2.80;;
84345;SDS011;74709;53.128;18.020;2024-01-07T02:36:39;6.80;;;3.10;;
84345;SDS011;74709;53.128;18.020;2024-01-07T02:37:41;8.40;;;3.10;;
84345;SDS011;74709;53.128;18.020;2024-01-07T02:38:44;6.60;;;2.90;;
84345;SDS011;74709;53.128;18.020;2024-01-07T02:39:47;10.20;;;3.50;;
84345;SDS011;74709;53.128;18.020;2024-01-07T02:40:49;4.00;;;2.90;;
84345;SDS011;74709;53.128;18.020;2024-01-07T02:41:52;5.00;;;3.20;;
84345;SDS011;74709;53.128;18.020;2024-01-07T02:42:55;6.60;;;3.10;;
84345;SDS011;74709;53.128;18.020;2024-01-07T02:43:59;5.90;;;2.50;;
84345;SDS011;74709;53.128;18.020;2024-01-07T02:45:01;7.10;;;3.30;;
84345;SDS011;74709;53.128;18.020;2024-01-07T02:46:04;4.00;;;2.60;;
84345;SDS011;74709;53.128;18.020;2024-01-07T02:47:07;4.70;;;2.30;;
84345;SDS011;74709;53.128;18.020;2024-01-07T02:48:10;5.00;;;2.50;;
84345;SDS011;74709;53.128;18.020;2024-01-07T02:49:12;5.60;;;3.00;;
84345;SDS011;74709;53.128;18.020;2024-01-07T02:50:16;5.30;;;2.90;;
84345;SDS011;74709;53.128;18.020;2024-01-07T02:51:19;2.80;;;1.90;;
84345;SDS011;74709;53.128;18.020;2024-01-07T02:52:22;4.20;;;2.60;;
84345;SDS011;74709;53.128;18.020;2024-01-07T02:53:24;6.60;;;2.90;;
84345;SDS011;74709;53.128;18.020;2024-01-07T02:54:27;5.20;;;2.50;;
84345;SDS011;74709;53.128;18.020;2024-01-07T02:55:30;6.10;;;3.40;;
84345;SDS011;74709;53.128;18.020;2024-01-07T02:56:33;5.30;;;3.10;;
84345;SDS011;74709;53.128;18.020;2024-01-07T02:57:35;6.70;;;2.90;;
84345;SDS011;74709;53.128;18.020;2024-01-07T02:58:38;5.40;;;2.90;;
84345;SDS011;74709;53.128;18.020;2024-01-07T02:59:41;5.40;;;2.80;;
84345;SDS011;74709;53.128;18.020;2024-01-07T03:00:43;4.50;;;2.40;;
84345;SDS011;74709;53.128;18.020;2024-01-07T03:01:46;5.30;;;2.50;;
84345;SDS011;74709;53.128;18.020;2024-01-07T03:02:49;6.90;;;2.80;;
84345;SDS011;74709;53.128;18.020;2024-01-07T03:03:51;11.00;;;3.40;;
84345;SDS011;74709;53.128;18.020;2024-01-07T03:04:54;5.30;;;2.80;;
84345;SDS011;74709;53.128;18.020;2024-01-07T03:05:57;7.70;;;2.80;;
84345;SDS011;74709;53.128;18.020;2024-01-07T03:07:00;5.30;;;2.90;;
84345;SDS011;74709;53.128;18.020;2024-01-07T03:08:02;4.30;;;2.70;;
84345;SDS011;74709;53.128;18.020;2024-01-07T03:09:06;5.30;;;2.80;;
84345;SDS011;74709;53.128;18.020;2024-01-07T03:10:09;5.30;;;3.00;;
84345;SDS011;74709;53.128;18.020;2024-01-07T03:11:11;4.90;;;3.10;;
84345;SDS011;74709;53.128;18.020;2024-01-07T03:12:15;5.00;;;3.20;;
84345;SDS011;74709;53.128;18.020;2024-01-07T03:13:18;6.60;;;3.40;;
84345;SDS011;74709;53.128;18.020;2024-01-07T03:14:20;5.60;;;2.70;;
84345;SDS011;74709;53.128;18.020;2024-01-07T03:15:24;7.10;;;3.90;;
84345;SDS011;74709;53.128;18.020;2024-01-07T03:16:27;6.70;;;3.50;;
84345;SDS011;74709;53.128;18.020;2024-01-07T03:17:29;6.00;;;3.30;;
84345;SDS011;74709;53.128;18.020;2024-01-07T03:18:33;6.30;;;3.00;;
84345;SDS011;74709;53.128;18.020;2024-01-07T03:19:37;7.00;;;3.40;;
84345;SDS011;74709;53.128;18.020;2024-01-07T03:20:40;5.40;;;3.10;;
84345;SDS011;74709;53.128;18.020;2024-01-07T03:21:43;4.80;;;3.30;;
84345;SDS011;74709;53.128;18.020;2024-01-07T03:22:46;6.00;;;3.00;;
84345;SDS011;74709;53.128;18.020;2024-01-07T03:23:49;7.70;;;3.10;;
84345;SDS011;74709;53.128;18.020;2024-01-07T03:24:53;9.70;;;3.40;;
84345;SDS011;74709;53.128;18.020;2024-01-07T03:25:57;6.10;;;3.10;;
84345;SDS011;74709;53.128;18.020;2024-01-07T03:27:00;5.80;;;3.10;;
84345;SDS011;74709;53.128;18.020;2024-01-07T03:28:03;6.20;;;3.10;;
84345;SDS011;74709;53.128;18.020;2024-01-07T03:29:07;7.10;;;3.40;;
84345;SDS011;74709;53.128;18.020;2024-01-07T03:30:10;7.00;;;3.60;;
84345;SDS011;74709;53.128;18.020;2024-01-07T03:31:14;7.20;;;3.90;;
84345;SDS011;74709;53.128;18.020;2024-01-07T03:32:18;6.80;;;3.10;;
84345;SDS011;74709;53.128;18.020;2024-01-07T03:33:21;6.20;;;3.20;;
84345;SDS011;74709;53.128;18.020;2024-01-07T03:34:23;10.80;;;4.30;;
84345;SDS011;74709;53.128;18.020;2024-01-07T03:35:26;6.80;;;3.20;;
84345;SDS011;74709;53.128;18.020;2024-01-07T03:36:29;12.00;;;3.90;;
84345;SDS011;74709;53.128;18.020;2024-01-07T03:37:32;9.10;;;4.30;;
84345;SDS011;74709;53.128;18.020;2024-01-07T03:38:35;7.40;;;3.20;;
84345;SDS011;74709;53.128;18.020;2024-01-07T03:39:38;8.20;;;3.70;;
84345;SDS011;74709;53.128;18.020;2024-01-07T03:40:41;7.40;;;3.50;;
84345;SDS011;74709;53.128;18.020;2024-01-07T03:41:43;7.30;;;3.50;;
84345;SDS011;74709;53.128;18.020;2024-01-07T03:42:46;10.10;;;4.20;;
84345;SDS011;74709;53.128;18.020;2024-01-07T03:43:49;8.00;;;3.20;;
84345;SDS011;74709;53.128;18.020;2024-01-07T03:44:52;9.50;;;4.60;;
84345;SDS011;74709;53.128;18.020;2024-01-07T03:45:55;9.40;;;4.10;;
84345;SDS011;74709;53.128;18.020;2024-01-07T03:46:58;9.30;;;4.20;;
84345;SDS011;74709;53.128;18.020;2024-01-07T03:48:00;9.10;;;4.30;;
84345;SDS011;74709;53.128;18.020;2024-01-07T03:49:03;9.30;;;4.50;;
84345;SDS011;74709;53.128;18.020;2024-01-07T03:50:06;6.90;;;3.40;;
84345;SDS011;74709;53.128;18.020;2024-01-07T03:51:09;6.10;;;3.70;;
84345;SDS011;74709;53.128;18.020;2024-01-07T03:52:11;8.10;;;3.80;;
84345;SDS011;74709;53.128;18.020;2024-01-07T03:53:14;7.60;;;3.80;;
84345;SDS011;74709;53.128;18.020;2024-01-07T03:54:17;9.30;;;4.00;;
84345;SDS011;74709;53.128;18.020;2024-01-07T03:55:20;6.70;;;4.10;;
84345;SDS011;74709;53.128;18.020;2024-01-07T03:56:23;7.80;;;4.10;;
84345;SDS011;74709;53.128;18.020;2024-01-07T03:57:25;7.10;;;3.30;;
84345;SDS011;74709;53.128;18.020;2024-01-07T03:58:28;7.40;;;3.50;;
84345;SDS011;74709;53.128;18.020;2024-01-07T03:59:31;6.40;;;3.60;;
84345;SDS011;74709;53.128;18.020;2024-01-07T04:00:33;7.70;;;3.70;;
84345;SDS011;74709;53.128;18.020;2024-01-07T04:01:36;8.60;;;4.10;;
84345;SDS011;74709;53.128;18.020;2024-01-07T04:02:39;10.30;;;4.20;;
84345;SDS011;74709;53.128;18.020;2024-01-07T04:03:42;8.80;;;3.90;;
84345;SDS011;74709;53.128;18.020;2024-01-07T04:04:44;7.10;;;3.60;;
84345;SDS011;74709;53.128;18.020;2024-01-07T04:05:47;5.70;;;3.30;;
84345;SDS011;74709;53.128;18.020;2024-01-07T04:06:50;6.50;;;3.60;;
84345;SDS011;74709;53.128;18.020;2024-01-07T04:07:52;10.10;;;4.80;;
84345;SDS011;74709;53.128;18.020;2024-01-07T04:08:55;8.60;;;3.90;;
84345;SDS011;74709;53.128;18.020;2024-01-07T04:09:58;7.40;;;4.10;;
84345;SDS011;74709;53.128;18.020;2024-01-07T04:11:03;9.10;;;2.80;;
84345;SDS011;74709;53.128;18.020;2024-01-07T04:12:06;8.30;;;4.30;;
84345;SDS011;74709;53.128;18.020;2024-01-07T04:13:09;7.50;;;4.10;;
84345;SDS011;74709;53.128;18.020;2024-01-07T04:14:14;4.90;;;3.20;;
84345;SDS011;74709;53.128;18.020;2024-01-07T04:15:17;5.70;;;3.10;;
84345;SDS011;74709;53.128;18.020;2024-01-07T04:16:20;7.50;;;3.50;;
84345;SDS011;74709;53.128;18.020;2024-01-07T04:17:23;6.20;;;3.50;;
84345;SDS011;74709;53.128;18.020;2024-01-07T04:18:26;8.50;;;3.30;;
84345;SDS011;74709;53.128;18.020;2024-01-07T04:19:29;6.30;;;3.60;;
84345;SDS011;74709;53.128;18.020;2024-01-07T04:20:31;8.10;;;4.10;;
84345;SDS011;74709;53.128;18.020;2024-01-07T04:21:34;8.40;;;3.30;;
84345;SDS011;74709;53.128;18.020;2024-01-07T04:22:38;8.40;;;3.80;;
84345;SDS011;74709;53.128;18.020;2024-01-07T04:23:40;7.10;;;3.90;;
84345;SDS011;74709;53.128;18.020;2024-01-07T04:24:43;7.70;;;3.30;;
84345;SDS011;74709;53.128;18.020;2024-01-07T04:25:46;7.30;;;4.00;;
84345;SDS011;74709;53.128;18.020;2024-01-07T04:26:49;7.20;;;3.40;;
84345;SDS011;74709;53.128;18.020;2024-01-07T04:27:51;7.30;;;3.20;;
84345;SDS011;74709;53.128;18.020;2024-01-07T04:28:54;9.60;;;4.00;;
84345;SDS011;74709;53.128;18.020;2024-01-07T04:29:57;5.60;;;3.00;;
84345;SDS011;74709;53.128;18.020;2024-01-07T04:31:00;5.80;;;2.90;;
84345;SDS011;74709;53.128;18.020;2024-01-07T04:32:03;6.50;;;3.90;;
84345;SDS011;74709;53.128;18.020;2024-01-07T04:33:06;5.70;;;3.10;;
84345;SDS011;74709;53.128;18.020;2024-01-07T04:34:09;6.80;;;3.70;;
84345;SDS011;74709;53.128;18.020;2024-01-07T04:35:11;7.00;;;3.70;;
84345;SDS011;74709;53.128;18.020;2024-01-07T04:36:14;6.60;;;3.30;;
84345;SDS011;74709;53.128;18.020;2024-01-07T04:37:17;6.50;;;3.80;;
84345;SDS011;74709;53.128;18.020;2024-01-07T04:38:19;6.50;;;3.60;;
84345;SDS011;74709;53.128;18.020;2024-01-07T04:39:22;6.10;;;3.30;;
84345;SDS011;74709;53.128;18.020;2024-01-07T04:40:25;5.40;;;3.30;;
84345;SDS011;74709;53.128;18.020;2024-01-07T04:41:28;7.50;;;3.20;;
84345;SDS011;74709;53.128;18.020;2024-01-07T04:42:30;5.50;;;3.20;;
84345;SDS011;74709;53.128;18.020;2024-01-07T04:43:34;5.70;;;3.00;;
84345;SDS011;74709;53.128;18.020;2024-01-07T04:44:37;4.60;;;3.30;;
84345;SDS011;74709;53.128;18.020;2024-01-07T04:45:40;5.20;;;2.50;;
84345;SDS011;74709;53.128;18.020;2024-01-07T04:46:43;7.00;;;3.30;;
84345;SDS011;74709;53.128;18.020;2024-01-07T04:47:46;8.10;;;3.50;;
84345;SDS011;74709;53.128;18.020;2024-01-07T04:48:48;7.00;;;3.10;;
84345;SDS011;74709;53.128;18.020;2024-01-07T04:49:51;6.10;;;3.20;;
84345;SDS011;74709;53.128;18.020;2024-01-07T04:50:54;8.00;;;4.10;;
84345;SDS011;74709;53.128;18.020;2024-01-07T04:51:56;6.70;;;3.20;;
84345;SDS011;74709;53.128;18.020;2024-01-07T04:52:59;5.70;;;3.40;;
84345;SDS011;74709;53.128;18.020;2024-01-07T04:54:02;6.60;;;3.00;;
84345;SDS011;74709;53.128;18.020;2024-01-07T04:55:05;7.80;;;3.60;;
84345;SDS011;74709;53.128;18.020;2024-01-07T04:56:07;4.80;;;2.40;;
84345;SDS011;74709;53.128;18.020;2024-01-07T04:57:10;5.90;;;3.20;;
84345;SDS011;74709;53.128;18.020;2024-01-07T04:58:13;9.20;;;3.70;;
84345;SDS011;74709;53.128;18.020;2024-01-07T04:59:16;6.10;;;3.30;;
84345;SDS011;74709;53.128;18.020;2024-01-07T05:00:18;6.90;;;3.40;;
84345;SDS011;74709;53.128;18.020;2024-01-07T05:01:21;7.00;;;3.50;;
84345;SDS011;74709;53.128;18.020;2024-01-07T05:02:24;6.50;;;3.90;;
84345;SDS011;74709;53.128;18.020;2024-01-07T05:03:27;5.70;;;2.90;;
84345;SDS011;74709;53.128;18.020;2024-01-07T05:04:31;7.90;;;3.20;;
84345;SDS011;74709;53.128;18.020;2024-01-07T05:05:34;7.30;;;3.50;;
84345;SDS011;74709;53.128;18.020;2024-01-07T05:06:39;4.70;;;3.10;;
84345;SDS011;74709;53.128;18.020;2024-01-07T05:07:41;5.70;;;3.30;;
84345;SDS011;74709;53.128;18.020;2024-01-07T05:08:44;4.80;;;2.90;;
84345;SDS011;74709;53.128;18.020;2024-01-07T05:09:47;5.50;;;2.60;;
84345;SDS011;74709;53.128;18.020;2024-01-07T05:10:50;5.40;;;3.20;;
84345;SDS011;74709;53.128;18.020;2024-01-07T05:11:53;6.10;;;3.00;;
84345;SDS011;74709;53.128;18.020;2024-01-07T05:12:55;6.80;;;3.40;;
84345;SDS011;74709;53.128;18.020;2024-01-07T05:13:58;5.50;;;3.20;;
84345;SDS011;74709;53.128;18.020;2024-01-07T05:15:01;3.20;;;2.60;;
84345;SDS011;74709;53.128;18.020;2024-01-07T05:16:04;4.40;;;3.00;;
84345;SDS011;74709;53.128;18.020;2024-01-07T05:17:07;9.90;;;4.30;;
84345;SDS011;74709;53.128;18.020;2024-01-07T05:18:09;8.20;;;3.80;;
84345;SDS011;74709;53.128;18.020;2024-01-07T05:19:12;6.30;;;3.30;;
84345;SDS011;74709;53.128;18.020;2024-01-07T05:20:15;5.90;;;2.80;;
84345;SDS011;74709;53.128;18.020;2024-01-07T05:21:19;4.50;;;2.50;;
84345;SDS011;74709;53.128;18.020;2024-01-07T05:22:21;6.10;;;3.30;;
84345;SDS011;74709;53.128;18.020;2024-01-07T05:23:24;7.10;;;3.60;;
84345;SDS011;74709;53.128;18.020;2024-01-07T05:24:27;6.40;;;3.40;;
84345;SDS011;74709;53.128;18.020;2024-01-07T05:25:31;8.10;;;3.20;;
84345;SDS011;74709;53.128;18.020;2024-01-07T05:26:42;7.00;;;3.70;;
84345;SDS011;74709;53.128;18.020;2024-01-07T05:27:45;7.20;;;3.40;;
84345;SDS011;74709;53.128;18.020;2024-01-07T05:28:47;7.00;;;3.10;;
84345;SDS011;74709;53.128;18.020;2024-01-07T05:29:50;7.50;;;3.40;;
84345;SDS011;74709;53.128;18.020;2024-01-07T05:30:53;3.10;;;2.10;;
84345;SDS011;74709;53.128;18.020;2024-01-07T05:31:55;6.60;;;3.70;;
84345;SDS011;74709;53.128;18.020;2024-01-07T05:32:58;3.70;;;2.40;;
84345;SDS011;74709;53.128;18.020;2024-01-07T05:34:01;4.50;;;2.80;;
84345;SDS011;74709;53.128;18.020;2024-01-07T05:35:04;5.80;;;2.50;;
84345;SDS011;74709;53.128;18.020;2024-01-07T05:36:07;4.80;;;2.70;;
84345;SDS011;74709;53.128;18.020;2024-01-07T05:37:10;5.10;;;3.10;;
84345;SDS011;74709;53.128;18.020;2024-01-07T05:38:12;4.80;;;2.30;;
84345;SDS011;74709;53.128;18.020;2024-01-07T05:39:15;6.00;;;2.70;;
84345;SDS011;74709;53.128;18.020;2024-01-07T05:40:18;7.30;;;3.00;;
84345;SDS011;74709;53.128;18.020;2024-01-07T05:41:21;4.40;;;2.50;;
84345;SDS011;74709;53.128;18.020;2024-01-07T05:42:23;5.20;;;2.40;;
84345;SDS011;74709;53.128;18.020;2024-01-07T05:43:26;5.80;;;2.80;;
84345;SDS011;74709;53.128;18.020;2024-01-07T05:44:29;8.10;;;3.00;;
84345;SDS011;74709;53.128;18.020;2024-01-07T05:45:31;4.90;;;2.70;;
84345;SDS011;74709;53.128;18.020;2024-01-07T05:46:34;6.60;;;3.10;;
84345;SDS011;74709;53.128;18.020;2024-01-07T05:47:41;4.70;;;2.70;;
84345;SDS011;74709;53.128;18.020;2024-01-07T05:48:44;6.80;;;3.10;;
84345;SDS011;74709;53.128;18.020;2024-01-07T05:49:49;5.90;;;3.00;;
84345;SDS011;74709;53.128;18.020;2024-01-07T05:50:54;6.40;;;2.90;;
84345;SDS011;74709;53.128;18.020;2024-01-07T05:51:57;5.50;;;2.70;;
84345;SDS011;74709;53.128;18.020;2024-01-07T05:53:00;5.90;;;2.40;;
84345;SDS011;74709;53.128;18.020;2024-01-07T05:54:02;5.80;;;3.20;;
84345;SDS011;74709;53.128;18.020;2024-01-07T05:55:06;6.50;;;3.10;;
84345;SDS011;74709;53.128;18.020;2024-01-07T05:56:09;5.40;;;2.50;;
84345;SDS011;74709;53.128;18.020;2024-01-07T05:57:12;4.40;;;2.80;;
84345;SDS011;74709;53.128;18.020;2024-01-07T05:58:15;4.20;;;2.70;;
84345;SDS011;74709;53.128;18.020;2024-01-07T05:59:18;3.40;;;2.00;;
84345;SDS011;74709;53.128;18.020;2024-01-07T06:00:20;5.30;;;3.00;;
84345;SDS011;74709;53.128;18.020;2024-01-07T06:01:23;5.00;;;2.90;;
84345;SDS011;74709;53.128;18.020;2024-01-07T06:02:26;4.50;;;2.90;;
84345;SDS011;74709;53.128;18.020;2024-01-07T06:03:29;4.30;;;2.50;;
84345;SDS011;74709;53.128;18.020;2024-01-07T06:04:33;5.80;;;2.50;;
84345;SDS011;74709;53.128;18.020;2024-01-07T06:05:37;4.20;;;2.10;;
84345;SDS011;74709;53.128;18.020;2024-01-07T06:06:41;4.00;;;2.10;;
84345;SDS011;74709;53.128;18.020;2024-01-07T06:07:44;3.80;;;2.10;;
84345;SDS011;74709;53.128;18.020;2024-01-07T06:08:46;4.60;;;2.50;;
84345;SDS011;74709;53.128;18.020;2024-01-07T06:09:49;5.00;;;3.10;;
84345;SDS011;74709;53.128;18.020;2024-01-07T06:10:52;3.90;;;2.10;;
84345;SDS011;74709;53.128;18.020;2024-01-07T06:11:54;4.80;;;2.80;;
84345;SDS011;74709;53.128;18.020;2024-01-07T06:12:57;5.40;;;2.90;;
84345;SDS011;74709;53.128;18.020;2024-01-07T06:14:00;6.40;;;2.80;;
84345;SDS011;74709;53.128;18.020;2024-01-07T06:15:03;6.10;;;2.80;;
84345;SDS011;74709;53.128;18.020;2024-01-07T06:16:07;4.40;;;2.60;;